Terminal Aerodrome Forecast
Issued by NWS Sioux Falls, SD

Home | Current Version | Previous Version | Graphics & Text | Print | Product List | Glossary Off
Versions: 1 2 3 4 5 6 7 8 9 10 11 12 13 14

000
FTUS43 KFSD 200500
TAFFSD
TAF
KFSD 200522Z 2006/2106 VRB04KT P6SM BKN100
     FM201400 08011KT P6SM SCT120 BKN200
     FM202000 12010KT P6SM SCT070 BKN200
     FM210000 09005KT P6SM SCT060 BKN150=

USA.gov is the U.S. government's official web portal to all federal, state and local government web resources and services.